sensor_id;sensor_type;location;lat;lon;timestamp;pressure;altitude;pressure_sealevel;temperature
9985;BMP180;16737;50.932;6.780;2023-06-14T00:01:14;100083.00;;;23.90
9985;BMP180;16737;50.932;6.780;2023-06-14T00:03:40;100074.00;;;23.90
9985;BMP180;16737;50.932;6.780;2023-06-14T00:06:07;100082.00;;;23.80
9985;BMP180;16737;50.932;6.780;2023-06-14T00:08:36;100081.00;;;23.80
9985;BMP180;16737;50.932;6.780;2023-06-14T00:11:03;100076.00;;;23.70
9985;BMP180;16737;50.932;6.780;2023-06-14T00:13:30;100084.00;;;23.70
9985;BMP180;16737;50.932;6.780;2023-06-14T00:15:57;100080.00;;;23.70
9985;BMP180;16737;50.932;6.780;2023-06-14T00:18:24;100062.00;;;23.70
9985;BMP180;16737;50.932;6.780;2023-06-14T00:20:55;100089.00;;;23.60
9985;BMP180;16737;50.932;6.780;2023-06-14T00:23:22;100095.00;;;23.60
9985;BMP180;16737;50.932;6.780;2023-06-14T00:25:51;100093.00;;;23.60
9985;BMP180;16737;50.932;6.780;2023-06-14T00:28:17;100093.00;;;23.60
9985;BMP180;16737;50.932;6.780;2023-06-14T00:30:44;100091.00;;;23.50
9985;BMP180;16737;50.932;6.780;2023-06-14T00:33:12;100103.00;;;23.50
9985;BMP180;16737;50.932;6.780;2023-06-14T00:35:39;100091.00;;;23.50
9985;BMP180;16737;50.932;6.780;2023-06-14T00:38:06;100094.00;;;23.50
9985;BMP180;16737;50.932;6.780;2023-06-14T00:40:33;100090.00;;;23.50
9985;BMP180;16737;50.932;6.780;2023-06-14T00:43:02;100095.00;;;23.40
9985;BMP180;16737;50.932;6.780;2023-06-14T00:45:29;100099.00;;;23.40
9985;BMP180;16737;50.932;6.780;2023-06-14T00:47:57;100100.00;;;23.40
9985;BMP180;16737;50.932;6.780;2023-06-14T00:50:24;100099.00;;;23.30
9985;BMP180;16737;50.932;6.780;2023-06-14T00:52:52;100093.00;;;23.30
9985;BMP180;16737;50.932;6.780;2023-06-14T00:55:19;100101.00;;;23.30
9985;BMP180;16737;50.932;6.780;2023-06-14T00:57:46;100097.00;;;23.20
9985;BMP180;16737;50.932;6.780;2023-06-14T01:02:48;100105.00;;;23.20
9985;BMP180;16737;50.932;6.780;2023-06-14T01:05:17;100105.00;;;23.10
9985;BMP180;16737;50.932;6.780;2023-06-14T01:08:02;100110.00;;;23.10
9985;BMP180;16737;50.932;6.780;2023-06-14T01:10:39;100108.00;;;23.10
9985;BMP180;16737;50.932;6.780;2023-06-14T01:13:13;100118.00;;;23.10
9985;BMP180;16737;50.932;6.780;2023-06-14T01:15:43;100119.00;;;23.10
9985;BMP180;16737;50.932;6.780;2023-06-14T01:18:12;100112.00;;;23.00
9985;BMP180;16737;50.932;6.780;2023-06-14T01:20:44;100116.00;;;23.00
9985;BMP180;16737;50.932;6.780;2023-06-14T01:23:16;100102.00;;;22.90
9985;BMP180;16737;50.932;6.780;2023-06-14T01:25:43;100124.00;;;23.00
9985;BMP180;16737;50.932;6.780;2023-06-14T01:28:12;100124.00;;;22.90
9985;BMP180;16737;50.932;6.780;2023-06-14T01:30:42;100121.00;;;22.90
9985;BMP180;16737;50.932;6.780;2023-06-14T01:33:12;100122.00;;;22.80
9985;BMP180;16737;50.932;6.780;2023-06-14T01:35:43;100124.00;;;22.80
9985;BMP180;16737;50.932;6.780;2023-06-14T01:38:11;100120.00;;;22.80
9985;BMP180;16737;50.932;6.780;2023-06-14T01:40:42;100102.00;;;22.70
9985;BMP180;16737;50.932;6.780;2023-06-14T01:43:13;100121.00;;;22.70
9985;BMP180;16737;50.932;6.780;2023-06-14T01:45:41;100105.00;;;22.60
9985;BMP180;16737;50.932;6.780;2023-06-14T01:48:09;100110.00;;;22.60
9985;BMP180;16737;50.932;6.780;2023-06-14T01:50:36;100116.00;;;22.60
9985;BMP180;16737;50.932;6.780;2023-06-14T01:53:07;100113.00;;;22.60
9985;BMP180;16737;50.932;6.780;2023-06-14T01:55:34;100126.00;;;22.60
9985;BMP180;16737;50.932;6.780;2023-06-14T01:58:04;100123.00;;;22.50
9985;BMP180;16737;50.932;6.780;2023-06-14T02:00:32;100118.00;;;22.50
9985;BMP180;16737;50.932;6.780;2023-06-14T02:02:59;100116.00;;;22.50
9985;BMP180;16737;50.932;6.780;2023-06-14T02:05:26;100114.00;;;22.40
9985;BMP180;16737;50.932;6.780;2023-06-14T02:07:53;100113.00;;;22.40
9985;BMP180;16737;50.932;6.780;2023-06-14T02:10:20;100112.00;;;22.40
9985;BMP180;16737;50.932;6.780;2023-06-14T02:12:47;100106.00;;;22.40
9985;BMP180;16737;50.932;6.780;2023-06-14T02:15:16;100110.00;;;22.30
9985;BMP180;16737;50.932;6.780;2023-06-14T02:17:43;100109.00;;;22.30
9985;BMP180;16737;50.932;6.780;2023-06-14T02:20:12;100109.00;;;22.30
9985;BMP180;16737;50.932;6.780;2023-06-14T02:22:39;100116.00;;;22.30
9985;BMP180;16737;50.932;6.780;2023-06-14T02:25:07;100113.00;;;22.20
9985;BMP180;16737;50.932;6.780;2023-06-14T02:27:34;100112.00;;;22.20
9985;BMP180;16737;50.932;6.780;2023-06-14T02:30:02;100101.00;;;22.10
9985;BMP180;16737;50.932;6.780;2023-06-14T02:32:30;100117.00;;;22.10
9985;BMP180;16737;50.932;6.780;2023-06-14T02:34:57;100121.00;;;22.10
9985;BMP180;16737;50.932;6.780;2023-06-14T02:37:24;100112.00;;;22.10
9985;BMP180;16737;50.932;6.780;2023-06-14T02:39:51;100117.00;;;22.10
9985;BMP180;16737;50.932;6.780;2023-06-14T02:42:18;100096.00;;;22.00
9985;BMP180;16737;50.932;6.780;2023-06-14T02:44:45;100120.00;;;22.00
9985;BMP180;16737;50.932;6.780;2023-06-14T02:47:16;100107.00;;;22.00
9985;BMP180;16737;50.932;6.780;2023-06-14T02:49:45;100118.00;;;22.00
9985;BMP180;16737;50.932;6.780;2023-06-14T02:52:13;100135.00;;;22.00
9985;BMP180;16737;50.932;6.780;2023-06-14T02:54:40;100124.00;;;21.90
9985;BMP180;16737;50.932;6.780;2023-06-14T02:57:07;100121.00;;;21.90
9985;BMP180;16737;50.932;6.780;2023-06-14T02:59:34;100131.00;;;21.90
9985;BMP180;16737;50.932;6.780;2023-06-14T03:02:01;100125.00;;;21.80
9985;BMP180;16737;50.932;6.780;2023-06-14T03:04:28;100136.00;;;21.80
9985;BMP180;16737;50.932;6.780;2023-06-14T03:06:59;100132.00;;;21.80
9985;BMP180;16737;50.932;6.780;2023-06-14T03:09:28;100144.00;;;21.80
9985;BMP180;16737;50.932;6.780;2023-06-14T03:11:55;100136.00;;;21.80
9985;BMP180;16737;50.932;6.780;2023-06-14T03:14:22;100148.00;;;21.70
9985;BMP180;16737;50.932;6.780;2023-06-14T03:16:49;100135.00;;;21.70
9985;BMP180;16737;50.932;6.780;2023-06-14T03:19:21;100147.00;;;21.70
9985;BMP180;16737;50.932;6.780;2023-06-14T03:21:47;100144.00;;;21.70
9985;BMP180;16737;50.932;6.780;2023-06-14T03:24:16;100147.00;;;21.60
9985;BMP180;16737;50.932;6.780;2023-06-14T03:26:43;100147.00;;;21.60
9985;BMP180;16737;50.932;6.780;2023-06-14T03:29:10;100147.00;;;21.60
9985;BMP180;16737;50.932;6.780;2023-06-14T03:31:59;100145.00;;;21.50
9985;BMP180;16737;50.932;6.780;2023-06-14T03:34:27;100148.00;;;21.50
9985;BMP180;16737;50.932;6.780;2023-06-14T03:36:54;100132.00;;;21.50
9985;BMP180;16737;50.932;6.780;2023-06-14T03:39:22;100155.00;;;21.50
9985;BMP180;16737;50.932;6.780;2023-06-14T03:41:49;100155.00;;;21.40
9985;BMP180;16737;50.932;6.780;2023-06-14T03:44:17;100154.00;;;21.40
9985;BMP180;16737;50.932;6.780;2023-06-14T03:46:45;100144.00;;;21.40
9985;BMP180;16737;50.932;6.780;2023-06-14T03:49:12;100148.00;;;21.40
9985;BMP180;16737;50.932;6.780;2023-06-14T03:51:39;100162.00;;;21.40
9985;BMP180;16737;50.932;6.780;2023-06-14T03:54:06;100149.00;;;21.40
9985;BMP180;16737;50.932;6.780;2023-06-14T03:56:35;100158.00;;;21.30
9985;BMP180;16737;50.932;6.780;2023-06-14T03:59:02;100163.00;;;21.30
9985;BMP180;16737;50.932;6.780;2023-06-14T04:01:29;100168.00;;;21.30
9985;BMP180;16737;50.932;6.780;2023-06-14T04:03:56;100170.00;;;21.30
9985;BMP180;16737;50.932;6.780;2023-06-14T04:06:24;100159.00;;;21.30
9985;BMP180;16737;50.932;6.780;2023-06-14T04:08:59;100168.00;;;21.30
9985;BMP180;16737;50.932;6.780;2023-06-14T04:11:29;100167.00;;;21.30
9985;BMP180;16737;50.932;6.780;2023-06-14T04:13:58;100166.00;;;21.20
9985;BMP180;16737;50.932;6.780;2023-06-14T04:16:26;100179.00;;;21.30
9985;BMP180;16737;50.932;6.780;2023-06-14T04:18:54;100184.00;;;21.30
9985;BMP180;16737;50.932;6.780;2023-06-14T04:21:23;100192.00;;;21.30
9985;BMP180;16737;50.932;6.780;2023-06-14T04:23:53;100195.00;;;21.30
9985;BMP180;16737;50.932;6.780;2023-06-14T04:26:21;100193.00;;;21.30
9985;BMP180;16737;50.932;6.780;2023-06-14T04:28:49;100190.00;;;21.30
9985;BMP180;16737;50.932;6.780;2023-06-14T04:31:18;100193.00;;;21.30
9985;BMP180;16737;50.932;6.780;2023-06-14T04:33:47;100184.00;;;21.30
9985;BMP180;16737;50.932;6.780;2023-06-14T04:36:16;100187.00;;;21.40
9985;BMP180;16737;50.932;6.780;2023-06-14T04:38:43;100198.00;;;21.40
9985;BMP180;16737;50.932;6.780;2023-06-14T04:41:12;100199.00;;;21.40
9985;BMP180;16737;50.932;6.780;2023-06-14T04:43:41;100190.00;;;21.40
9985;BMP180;16737;50.932;6.780;2023-06-14T04:46:09;100191.00;;;21.50
9985;BMP180;16737;50.932;6.780;2023-06-14T04:48:39;100208.00;;;21.50
9985;BMP180;16737;50.932;6.780;2023-06-14T04:51:08;100202.00;;;21.50
9985;BMP180;16737;50.932;6.780;2023-06-14T04:53:36;100207.00;;;21.50
9985;BMP180;16737;50.932;6.780;2023-06-14T04:56:04;100203.00;;;21.50
9985;BMP180;16737;50.932;6.780;2023-06-14T04:58:31;100215.00;;;21.60
9985;BMP180;16737;50.932;6.780;2023-06-14T05:00:58;100213.00;;;21.60
9985;BMP180;16737;50.932;6.780;2023-06-14T05:03:25;100209.00;;;21.60
9985;BMP180;16737;50.932;6.780;2023-06-14T05:05:54;100214.00;;;21.60
9985;BMP180;16737;50.932;6.780;2023-06-14T05:08:22;100225.00;;;21.60
9985;BMP180;16737;50.932;6.780;2023-06-14T05:10:50;100226.00;;;21.70
9985;BMP180;16737;50.932;6.780;2023-06-14T05:13:17;100222.00;;;21.70
9985;BMP180;16737;50.932;6.780;2023-06-14T05:15:44;100226.00;;;21.70
9985;BMP180;16737;50.932;6.780;2023-06-14T05:18:12;100225.00;;;21.70
9985;BMP180;16737;50.932;6.780;2023-06-14T05:20:40;100233.00;;;21.80
9985;BMP180;16737;50.932;6.780;2023-06-14T05:23:09;100238.00;;;21.80
9985;BMP180;16737;50.932;6.780;2023-06-14T05:25:42;100238.00;;;21.80
9985;BMP180;16737;50.932;6.780;2023-06-14T05:28:09;100235.00;;;21.80
9985;BMP180;16737;50.932;6.780;2023-06-14T05:30:38;100225.00;;;21.80
9985;BMP180;16737;50.932;6.780;2023-06-14T05:33:06;100229.00;;;21.90
9985;BMP180;16737;50.932;6.780;2023-06-14T05:35:33;100247.00;;;21.90
9985;BMP180;16737;50.932;6.780;2023-06-14T05:37:59;100239.00;;;22.00
9985;BMP180;16737;50.932;6.780;2023-06-14T05:40:28;100246.00;;;22.00
9985;BMP180;16737;50.932;6.780;2023-06-14T05:42:55;100230.00;;;22.00
9985;BMP180;16737;50.932;6.780;2023-06-14T05:45:21;100254.00;;;22.10
9985;BMP180;16737;50.932;6.780;2023-06-14T05:47:48;100257.00;;;22.10
9985;BMP180;16737;50.932;6.780;2023-06-14T05:50:16;100256.00;;;22.10
9985;BMP180;16737;50.932;6.780;2023-06-14T05:52:43;100252.00;;;22.20
9985;BMP180;16737;50.932;6.780;2023-06-14T05:55:09;100248.00;;;22.20
9985;BMP180;16737;50.932;6.780;2023-06-14T05:57:39;100266.00;;;22.30
9985;BMP180;16737;50.932;6.780;2023-06-14T06:00:08;100264.00;;;22.30
9985;BMP180;16737;50.932;6.780;2023-06-14T06:02:40;100264.00;;;22.30
9985;BMP180;16737;50.932;6.780;2023-06-14T06:05:08;100271.00;;;22.40
9985;BMP180;16737;50.932;6.780;2023-06-14T06:07:35;100269.00;;;22.40
9985;BMP180;16737;50.932;6.780;2023-06-14T06:10:02;100280.00;;;22.40
9985;BMP180;16737;50.932;6.780;2023-06-14T06:12:29;100271.00;;;22.50
9985;BMP180;16737;50.932;6.780;2023-06-14T06:14:58;100271.00;;;22.50
9985;BMP180;16737;50.932;6.780;2023-06-14T06:17:25;100268.00;;;22.60
9985;BMP180;16737;50.932;6.780;2023-06-14T06:19:53;100270.00;;;22.70
9985;BMP180;16737;50.932;6.780;2023-06-14T06:22:20;100279.00;;;22.70
9985;BMP180;16737;50.932;6.780;2023-06-14T06:24:47;100276.00;;;22.80
9985;BMP180;16737;50.932;6.780;2023-06-14T06:27:14;100288.00;;;22.80
9985;BMP180;16737;50.932;6.780;2023-06-14T06:29:42;100287.00;;;22.90
9985;BMP180;16737;50.932;6.780;2023-06-14T06:32:11;100285.00;;;23.00
9985;BMP180;16737;50.932;6.780;2023-06-14T06:34:37;100285.00;;;23.10
9985;BMP180;16737;50.932;6.780;2023-06-14T06:37:05;100290.00;;;23.10
9985;BMP180;16737;50.932;6.780;2023-06-14T06:39:33;100291.00;;;23.20
9985;BMP180;16737;50.932;6.780;2023-06-14T06:42:00;100294.00;;;23.20
9985;BMP180;16737;50.932;6.780;2023-06-14T06:44:27;100298.00;;;23.30
9985;BMP180;16737;50.932;6.780;2023-06-14T06:46:54;100306.00;;;23.40
9985;BMP180;16737;50.932;6.780;2023-06-14T06:49:23;100310.00;;;23.40
9985;BMP180;16737;50.932;6.780;2023-06-14T06:52:03;100304.00;;;23.50
9985;BMP180;16737;50.932;6.780;2023-06-14T06:54:31;100310.00;;;23.60
9985;BMP180;16737;50.932;6.780;2023-06-14T06:56:58;100307.00;;;23.60
9985;BMP180;16737;50.932;6.780;2023-06-14T06:59:25;100314.00;;;23.70
9985;BMP180;16737;50.932;6.780;2023-06-14T07:01:52;100312.00;;;23.80
9985;BMP180;16737;50.932;6.780;2023-06-14T07:04:19;100313.00;;;23.90
9985;BMP180;16737;50.932;6.780;2023-06-14T07:06:47;100292.00;;;23.90
9985;BMP180;16737;50.932;6.780;2023-06-14T07:09:15;100306.00;;;24.00
9985;BMP180;16737;50.932;6.780;2023-06-14T07:11:44;100314.00;;;24.10
9985;BMP180;16737;50.932;6.780;2023-06-14T07:14:14;100313.00;;;24.20
9985;BMP180;16737;50.932;6.780;2023-06-14T07:16:41;100308.00;;;24.30
9985;BMP180;16737;50.932;6.780;2023-06-14T07:19:09;100319.00;;;24.40
9985;BMP180;16737;50.932;6.780;2023-06-14T07:21:36;100305.00;;;24.50
9985;BMP180;16737;50.932;6.780;2023-06-14T07:24:06;100323.00;;;24.50
9985;BMP180;16737;50.932;6.780;2023-06-14T07:26:33;100310.00;;;24.60
9985;BMP180;16737;50.932;6.780;2023-06-14T07:29:01;100313.00;;;24.70
9985;BMP180;16737;50.932;6.780;2023-06-14T07:31:28;100317.00;;;24.80
9985;BMP180;16737;50.932;6.780;2023-06-14T07:33:55;100315.00;;;24.90
9985;BMP180;16737;50.932;6.780;2023-06-14T07:36:22;100330.00;;;25.00
9985;BMP180;16737;50.932;6.780;2023-06-14T07:38:49;100330.00;;;25.10
9985;BMP180;16737;50.932;6.780;2023-06-14T07:41:18;100316.00;;;25.20
9985;BMP180;16737;50.932;6.780;2023-06-14T07:43:45;100330.00;;;25.30
9985;BMP180;16737;50.932;6.780;2023-06-14T07:46:12;100326.00;;;25.40
9985;BMP180;16737;50.932;6.780;2023-06-14T07:48:39;100330.00;;;25.50
9985;BMP180;16737;50.932;6.780;2023-06-14T07:51:06;100322.00;;;25.60
9985;BMP180;16737;50.932;6.780;2023-06-14T07:53:33;100321.00;;;25.70
9985;BMP180;16737;50.932;6.780;2023-06-14T07:55:59;100320.00;;;25.80
9985;BMP180;16737;50.932;6.780;2023-06-14T07:58:29;100331.00;;;25.80
9985;BMP180;16737;50.932;6.780;2023-06-14T08:00:56;100336.00;;;26.00
9985;BMP180;16737;50.932;6.780;2023-06-14T08:03:23;100324.00;;;26.10
9985;BMP180;16737;50.932;6.780;2023-06-14T08:05:50;100338.00;;;26.20
9985;BMP180;16737;50.932;6.780;2023-06-14T08:08:17;100333.00;;;26.30
9985;BMP180;16737;50.932;6.780;2023-06-14T08:10:44;100324.00;;;26.40
9985;BMP180;16737;50.932;6.780;2023-06-14T08:13:11;100320.00;;;26.50
9985;BMP180;16737;50.932;6.780;2023-06-14T08:15:40;100331.00;;;26.60
9985;BMP180;16737;50.932;6.780;2023-06-14T08:18:07;100320.00;;;26.70
9985;BMP180;16737;50.932;6.780;2023-06-14T08:20:34;100324.00;;;26.80
9985;BMP180;16737;50.932;6.780;2023-06-14T08:23:03;100333.00;;;27.00
9985;BMP180;16737;50.932;6.780;2023-06-14T08:25:30;100332.00;;;27.10
9985;BMP180;16737;50.932;6.780;2023-06-14T08:28:01;100335.00;;;27.20
9985;BMP180;16737;50.932;6.780;2023-06-14T08:30:30;100330.00;;;27.30
9985;BMP180;16737;50.932;6.780;2023-06-14T08:32:58;100326.00;;;27.40
9985;BMP180;16737;50.932;6.780;2023-06-14T08:35:26;100331.00;;;27.50
9985;BMP180;16737;50.932;6.780;2023-06-14T08:37:53;100325.00;;;27.60
9985;BMP180;16737;50.932;6.780;2023-06-14T08:40:23;100317.00;;;27.60
9985;BMP180;16737;50.932;6.780;2023-06-14T08:42:53;100322.00;;;27.70
9985;BMP180;16737;50.932;6.780;2023-06-14T08:45:24;100330.00;;;27.70
9985;BMP180;16737;50.932;6.780;2023-06-14T08:47:53;100325.00;;;27.70
9985;BMP180;16737;50.932;6.780;2023-06-14T08:50:26;100325.00;;;27.70
9985;BMP180;16737;50.932;6.780;2023-06-14T08:53:00;100323.00;;;27.70
9985;BMP180;16737;50.932;6.780;2023-06-14T08:55:29;100314.00;;;27.80
9985;BMP180;16737;50.932;6.780;2023-06-14T08:57:58;100322.00;;;27.80
9985;BMP180;16737;50.932;6.780;2023-06-14T09:00:27;100332.00;;;27.80
9985;BMP180;16737;50.932;6.780;2023-06-14T09:02:55;100323.00;;;27.90
9985;BMP180;16737;50.932;6.780;2023-06-14T09:05:26;100313.00;;;27.90
9985;BMP180;16737;50.932;6.780;2023-06-14T09:07:54;100319.00;;;28.00
9985;BMP180;16737;50.932;6.780;2023-06-14T09:10:23;100317.00;;;28.00
9985;BMP180;16737;50.932;6.780;2023-06-14T09:12:51;100332.00;;;28.20
9985;BMP180;16737;50.932;6.780;2023-06-14T09:15:18;100325.00;;;28.20
9985;BMP180;16737;50.932;6.780;2023-06-14T09:17:46;100324.00;;;28.30
9985;BMP180;16737;50.932;6.780;2023-06-14T09:20:13;100333.00;;;28.40
9985;BMP180;16737;50.932;6.780;2023-06-14T09:22:45;100332.00;;;28.50
9985;BMP180;16737;50.932;6.780;2023-06-14T09:25:12;100333.00;;;28.60
9985;BMP180;16737;50.932;6.780;2023-06-14T09:27:41;100331.00;;;28.60
9985;BMP180;16737;50.932;6.780;2023-06-14T09:30:10;100335.00;;;28.60
9985;BMP180;16737;50.932;6.780;2023-06-14T09:32:39;100323.00;;;28.70
9985;BMP180;16737;50.932;6.780;2023-06-14T09:35:07;100332.00;;;28.80
9985;BMP180;16737;50.932;6.780;2023-06-14T09:37:37;100332.00;;;28.90
9985;BMP180;16737;50.932;6.780;2023-06-14T09:40:07;100337.00;;;29.00
9985;BMP180;16737;50.932;6.780;2023-06-14T09:42:35;100326.00;;;29.20
9985;BMP180;16737;50.932;6.780;2023-06-14T09:45:04;100336.00;;;29.30
9985;BMP180;16737;50.932;6.780;2023-06-14T09:47:32;100333.00;;;29.40
9985;BMP180;16737;50.932;6.780;2023-06-14T09:49:59;100339.00;;;29.50
9985;BMP180;16737;50.932;6.780;2023-06-14T09:52:28;100339.00;;;29.60
9985;BMP180;16737;50.932;6.780;2023-06-14T09:54:59;100335.00;;;29.60
9985;BMP180;16737;50.932;6.780;2023-06-14T09:57:30;100339.00;;;29.70
9985;BMP180;16737;50.932;6.780;2023-06-14T10:00:01;100324.00;;;29.70
9985;BMP180;16737;50.932;6.780;2023-06-14T10:02:36;100339.00;;;29.70
9985;BMP180;16737;50.932;6.780;2023-06-14T10:05:07;100342.00;;;29.80
9985;BMP180;16737;50.932;6.780;2023-06-14T10:07:40;100335.00;;;29.80
9985;BMP180;16737;50.932;6.780;2023-06-14T10:10:09;100341.00;;;29.80
9985;BMP180;16737;50.932;6.780;2023-06-14T10:12:38;100334.00;;;29.80
9985;BMP180;16737;50.932;6.780;2023-06-14T10:15:10;100334.00;;;29.80
9985;BMP180;16737;50.932;6.780;2023-06-14T10:17:46;100335.00;;;29.90
9985;BMP180;16737;50.932;6.780;2023-06-14T10:20:27;100318.00;;;29.80
9985;BMP180;16737;50.932;6.780;2023-06-14T10:23:03;100335.00;;;29.90
9985;BMP180;16737;50.932;6.780;2023-06-14T10:25:33;100335.00;;;29.90
9985;BMP180;16737;50.932;6.780;2023-06-14T10:28:16;100320.00;;;29.90
9985;BMP180;16737;50.932;6.780;2023-06-14T10:31:08;100323.00;;;29.90
9985;BMP180;16737;50.932;6.780;2023-06-14T10:33:39;100334.00;;;30.00
9985;BMP180;16737;50.932;6.780;2023-06-14T10:36:27;100326.00;;;30.00
9985;BMP180;16737;50.932;6.780;2023-06-14T10:39:03;100326.00;;;30.10
9985;BMP180;16737;50.932;6.780;2023-06-14T10:41:34;100326.00;;;30.10
9985;BMP180;16737;50.932;6.780;2023-06-14T10:44:38;100331.00;;;30.10
9985;BMP180;16737;50.932;6.780;2023-06-14T10:47:10;100334.00;;;30.10
9985;BMP180;16737;50.932;6.780;2023-06-14T10:49:40;100341.00;;;30.10
9985;BMP180;16737;50.932;6.780;2023-06-14T10:52:09;100339.00;;;30.10
9985;BMP180;16737;50.932;6.780;2023-06-14T10:55:08;100330.00;;;30.00
9985;BMP180;16737;50.932;6.780;2023-06-14T10:57:38;100318.00;;;30.00
9985;BMP180;16737;50.932;6.780;2023-06-14T11:00:09;100337.00;;;30.00
9985;BMP180;16737;50.932;6.780;2023-06-14T11:03:21;100332.00;;;30.00
9985;BMP180;16737;50.932;6.780;2023-06-14T11:05:53;100337.00;;;30.00
9985;BMP180;16737;50.932;6.780;2023-06-14T11:08:56;100333.00;;;30.00
9985;BMP180;16737;50.932;6.780;2023-06-14T11:11:32;100323.00;;;30.00
9985;BMP180;16737;50.932;6.780;2023-06-14T11:14:00;100323.00;;;30.00
9985;BMP180;16737;50.932;6.780;2023-06-14T11:16:30;100333.00;;;30.00
9985;BMP180;16737;50.932;6.780;2023-06-14T11:19:00;100321.00;;;30.00
9985;BMP180;16737;50.932;6.780;2023-06-14T11:21:28;100289.00;;;30.00
9985;BMP180;16737;50.932;6.780;2023-06-14T11:23:57;100319.00;;;30.00
9985;BMP180;16737;50.932;6.780;2023-06-14T11:26:29;100317.00;;;30.00
9985;BMP180;16737;50.932;6.780;2023-06-14T11:28:58;100314.00;;;30.00
9985;BMP180;16737;50.932;6.780;2023-06-14T11:31:25;100318.00;;;30.10
9985;BMP180;16737;50.932;6.780;2023-06-14T11:33:56;100321.00;;;30.10
9985;BMP180;16737;50.932;6.780;2023-06-14T11:36:27;100308.00;;;30.10
9985;BMP180;16737;50.932;6.780;2023-06-14T11:38:59;100306.00;;;30.10
9985;BMP180;16737;50.932;6.780;2023-06-14T11:41:34;100312.00;;;30.10
9985;BMP180;16737;50.932;6.780;2023-06-14T11:44:02;100298.00;;;30.10
9985;BMP180;16737;50.932;6.780;2023-06-14T11:46:29;100313.00;;;30.10
9985;BMP180;16737;50.932;6.780;2023-06-14T11:48:57;100305.00;;;30.10
9985;BMP180;16737;50.932;6.780;2023-06-14T11:51:24;100304.00;;;30.10
9985;BMP180;16737;50.932;6.780;2023-06-14T11:53:51;100298.00;;;30.10
9985;BMP180;16737;50.932;6.780;2023-06-14T11:56:19;100302.00;;;30.20
9985;BMP180;16737;50.932;6.780;2023-06-14T11:58:46;100303.00;;;30.20
9985;BMP180;16737;50.932;6.780;2023-06-14T12:01:16;100285.00;;;30.30
9985;BMP180;16737;50.932;6.780;2023-06-14T12:03:48;100305.00;;;30.40
9985;BMP180;16737;50.932;6.780;2023-06-14T12:06:25;100314.00;;;30.50
9985;BMP180;16737;50.932;6.780;2023-06-14T12:08:56;100311.00;;;30.60
9985;BMP180;16737;50.932;6.780;2023-06-14T12:11:23;100313.00;;;30.80
9985;BMP180;16737;50.932;6.780;2023-06-14T12:13:50;100313.00;;;30.80
9985;BMP180;16737;50.932;6.780;2023-06-14T12:16:17;100306.00;;;30.90
9985;BMP180;16737;50.932;6.780;2023-06-14T12:18:44;100311.00;;;31.00
9985;BMP180;16737;50.932;6.780;2023-06-14T12:21:11;100314.00;;;31.10
9985;BMP180;16737;50.932;6.780;2023-06-14T12:23:48;100318.00;;;31.10
9985;BMP180;16737;50.932;6.780;2023-06-14T12:26:16;100307.00;;;31.20
9985;BMP180;16737;50.932;6.780;2023-06-14T12:28:45;100305.00;;;31.20
9985;BMP180;16737;50.932;6.780;2023-06-14T12:31:14;100314.00;;;31.20
9985;BMP180;16737;50.932;6.780;2023-06-14T12:33:42;100321.00;;;31.10
9985;BMP180;16737;50.932;6.780;2023-06-14T12:36:11;100318.00;;;31.20
9985;BMP180;16737;50.932;6.780;2023-06-14T12:38:38;100295.00;;;31.20
9985;BMP180;16737;50.932;6.780;2023-06-14T12:41:07;100312.00;;;31.30
9985;BMP180;16737;50.932;6.780;2023-06-14T12:43:34;100322.00;;;31.20
9985;BMP180;16737;50.932;6.780;2023-06-14T12:46:01;100320.00;;;31.20
9985;BMP180;16737;50.932;6.780;2023-06-14T12:48:28;100321.00;;;31.20
9985;BMP180;16737;50.932;6.780;2023-06-14T12:50:56;100321.00;;;31.20
9985;BMP180;16737;50.932;6.780;2023-06-14T12:53:24;100318.00;;;31.30
9985;BMP180;16737;50.932;6.780;2023-06-14T12:55:51;100316.00;;;31.30
9985;BMP180;16737;50.932;6.780;2023-06-14T12:58:20;100314.00;;;31.40
9985;BMP180;16737;50.932;6.780;2023-06-14T13:00:49;100298.00;;;31.50
9985;BMP180;16737;50.932;6.780;2023-06-14T13:03:16;100290.00;;;31.50
9985;BMP180;16737;50.932;6.780;2023-06-14T13:05:43;100319.00;;;31.40
9985;BMP180;16737;50.932;6.780;2023-06-14T13:08:10;100322.00;;;31.30
9985;BMP180;16737;50.932;6.780;2023-06-14T13:10:36;100316.00;;;31.20
9985;BMP180;16737;50.932;6.780;2023-06-14T13:13:03;100318.00;;;31.20
9985;BMP180;16737;50.932;6.780;2023-06-14T13:15:32;100313.00;;;31.10
9985;BMP180;16737;50.932;6.780;2023-06-14T13:17:59;100310.00;;;31.10
9985;BMP180;16737;50.932;6.780;2023-06-14T13:20:26;100315.00;;;31.10
9985;BMP180;16737;50.932;6.780;2023-06-14T13:22:53;100313.00;;;31.20
9985;BMP180;16737;50.932;6.780;2023-06-14T13:25:20;100311.00;;;31.10
9985;BMP180;16737;50.932;6.780;2023-06-14T13:27:48;100319.00;;;31.10
9985;BMP180;16737;50.932;6.780;2023-06-14T13:30:15;100320.00;;;31.10
9985;BMP180;16737;50.932;6.780;2023-06-14T13:32:43;100321.00;;;31.10
9985;BMP180;16737;50.932;6.780;2023-06-14T13:35:10;100314.00;;;31.10
9985;BMP180;16737;50.932;6.780;2023-06-14T13:37:37;100322.00;;;31.20
9985;BMP180;16737;50.932;6.780;2023-06-14T13:40:06;100314.00;;;31.20
9985;BMP180;16737;50.932;6.780;2023-06-14T13:42:33;100324.00;;;31.30
9985;BMP180;16737;50.932;6.780;2023-06-14T13:45:02;100323.00;;;31.30
9985;BMP180;16737;50.932;6.780;2023-06-14T13:47:29;100324.00;;;31.30
9985;BMP180;16737;50.932;6.780;2023-06-14T13:49:58;100305.00;;;31.30
9985;BMP180;16737;50.932;6.780;2023-06-14T13:52:25;100317.00;;;31.20
9985;BMP180;16737;50.932;6.780;2023-06-14T13:54:52;100331.00;;;31.20
9985;BMP180;16737;50.932;6.780;2023-06-14T13:57:20;100319.00;;;31.20
9985;BMP180;16737;50.932;6.780;2023-06-14T13:59:47;100322.00;;;31.20
9985;BMP180;16737;50.932;6.780;2023-06-14T14:02:14;100322.00;;;31.20
9985;BMP180;16737;50.932;6.780;2023-06-14T14:04:41;100320.00;;;31.20
9985;BMP180;16737;50.932;6.780;2023-06-14T14:07:09;100317.00;;;31.30
9985;BMP180;16737;50.932;6.780;2023-06-14T14:09:36;100322.00;;;31.30
9985;BMP180;16737;50.932;6.780;2023-06-14T14:12:06;100320.00;;;31.30
9985;BMP180;16737;50.932;6.780;2023-06-14T14:14:33;100325.00;;;31.20
9985;BMP180;16737;50.932;6.780;2023-06-14T14:17:00;100326.00;;;31.10
9985;BMP180;16737;50.932;6.780;2023-06-14T14:19:27;100330.00;;;31.10
9985;BMP180;16737;50.932;6.780;2023-06-14T14:21:54;100320.00;;;31.10